createdAt,value
2022-10-16T04:06:09.221Z,13.70
2022-10-16T04:27:10.408Z,13.90
2022-10-16T04:32:09.898Z,14.70
2022-10-16T04:37:09.840Z,15.10
2022-10-16T04:42:09.719Z,14.70
2022-10-16T04:47:09.658Z,14.60
2022-10-16T04:52:09.584Z,15.20
2022-10-16T04:57:09.499Z,15.60
2022-10-16T05:02:10.592Z,15.40
2022-10-16T05:07:09.531Z,14.70
2022-10-16T05:12:09.370Z,14.40
2022-10-16T05:17:09.621Z,13.90
2022-10-16T05:22:09.224Z,14.20
2022-10-16T05:27:09.154Z,13.70
2022-10-16T05:32:09.122Z,14.20
2022-10-16T05:37:09.170Z,14.10
2022-10-16T05:42:08.891Z,13.90
2022-10-16T05:47:08.904Z,13.70
2022-10-16T05:52:09.712Z,13.80
2022-10-16T05:57:08.715Z,13.80
2022-10-16T06:02:08.623Z,14.10
2022-10-16T06:07:08.556Z,13.10
2022-10-16T06:12:08.573Z,12.50
2022-10-16T06:17:08.472Z,12.80
2022-10-16T06:22:08.330Z,12.80
2022-10-16T06:27:08.348Z,12.50
2022-10-16T06:32:08.236Z,13.10
2022-10-16T06:37:08.126Z,12.50
2022-10-16T06:42:08.116Z,13.00
2022-10-16T06:47:08.022Z,13.20
2022-10-16T06:52:08.006Z,13.50
2022-10-16T06:57:17.529Z,13.20
2022-10-16T07:02:17.561Z,13.30
2022-10-16T07:07:09.412Z,13.10
2022-10-16T07:12:07.668Z,13.90
2022-10-16T07:17:07.655Z,13.40
2022-10-16T07:22:07.741Z,13.40
2022-10-16T07:27:07.526Z,13.10
2022-10-16T07:32:07.512Z,13.10
2022-10-16T07:37:07.501Z,13.30
2022-10-16T07:42:08.166Z,12.70
2022-10-16T07:47:08.324Z,13.10
2022-10-16T07:52:07.287Z,13.00
2022-10-16T07:57:07.067Z,13.00
2022-10-16T08:02:07.003Z,12.40
2022-10-16T08:07:06.903Z,12.10
2022-10-16T08:12:06.988Z,12.10
2022-10-16T08:17:06.786Z,11.80
2022-10-16T08:22:06.758Z,10.60
2022-10-16T08:27:06.715Z,9.90
2022-10-16T08:32:06.917Z,10.40
2022-10-16T08:37:18.103Z,10.00
2022-10-16T08:42:06.446Z,10.30
2022-10-16T08:47:06.395Z,9.00
2022-10-16T08:52:06.309Z,8.20
2022-10-16T08:57:06.340Z,8.00
2022-10-16T09:02:06.178Z,7.40
2022-10-16T09:07:07.026Z,7.60
2022-10-16T09:12:06.089Z,7.10
2022-10-16T09:17:06.066Z,7.00
2022-10-16T09:22:05.923Z,6.80
2022-10-16T09:27:05.894Z,7.30
2022-10-16T09:32:05.784Z,7.00
2022-10-16T09:37:05.760Z,6.90
2022-10-16T09:42:05.686Z,7.40
2022-10-16T09:47:05.696Z,6.70
2022-10-16T09:52:05.673Z,6.60
2022-10-16T09:57:05.469Z,6.50
2022-10-16T10:02:05.413Z,4.70
2022-10-16T10:07:05.309Z,3.80
2022-10-16T10:12:05.835Z,4.60
2022-10-16T10:17:05.332Z,4.10
2022-10-16T10:22:05.094Z,3.80
2022-10-16T10:27:06.014Z,3.50
2022-10-16T10:32:05.988Z,3.70
2022-10-16T10:37:04.921Z,3.20
2022-10-16T10:42:04.834Z,2.90
2022-10-16T10:47:04.788Z,1.50
2022-10-16T10:52:04.697Z,2.50
2022-10-16T10:57:04.667Z,2.10
2022-10-16T11:02:04.707Z,1.20
2022-10-16T11:07:04.600Z,1.10
2022-10-16T11:12:04.519Z,1.00
2022-10-16T11:17:04.380Z,1.20
2022-10-16T11:22:04.308Z,0.90
2022-10-16T11:27:04.321Z,0.90
2022-10-16T11:32:04.214Z,0.90
2022-10-16T11:37:04.211Z,0.80
2022-10-16T11:42:04.052Z,0.80
2022-10-16T11:47:28.741Z,1.00
2022-10-16T11:52:05.701Z,0.80
2022-10-16T11:57:03.846Z,0.80
2022-10-16T12:02:03.792Z,0.60
2022-10-16T12:07:03.837Z,0.90
2022-10-16T12:12:03.661Z,1.00
2022-10-16T12:17:03.585Z,0.80
2022-10-16T12:22:03.500Z,0.60
2022-10-16T12:27:03.432Z,0.60
2022-10-16T12:32:03.440Z,0.60
2022-10-16T12:37:03.347Z,0.50
2022-10-16T12:42:03.267Z,0.60
2022-10-16T12:47:03.188Z,0.50
2022-10-16T12:52:05.566Z,0.50
2022-10-16T12:57:03.195Z,0.70
2022-10-16T13:02:03.115Z,0.50
2022-10-16T13:07:02.925Z,0.50
2022-10-16T13:12:03.693Z,0.40
2022-10-16T13:17:02.781Z,0.40
2022-10-16T13:22:02.819Z,0.40
2022-10-16T13:27:02.760Z,0.50
2022-10-16T13:32:02.600Z,0.50
2022-10-16T13:37:02.492Z,0.50
2022-10-16T13:42:04.904Z,0.50
2022-10-16T13:47:03.379Z,0.70
2022-10-16T13:52:02.319Z,0.70
2022-10-16T13:57:09.394Z,0.80
2022-10-16T14:02:03.263Z,1.00
2022-10-16T14:07:02.108Z,0.80
2022-10-16T14:12:02.051Z,0.90
2022-10-16T14:17:01.960Z,0.70
2022-10-16T14:22:01.922Z,0.80
2022-10-16T14:27:01.830Z,0.70
2022-10-16T14:32:01.780Z,0.90
2022-10-16T14:37:01.747Z,0.80
2022-10-16T14:42:01.663Z,1.00
2022-10-16T14:47:01.563Z,1.10
2022-10-16T14:52:01.505Z,0.90
2022-10-16T14:57:01.463Z,1.10
2022-10-16T15:02:01.356Z,1.20
2022-10-16T15:07:01.303Z,1.20
2022-10-16T15:12:06.888Z,1.10
2022-10-16T15:17:01.218Z,1.30
2022-10-16T15:22:05.777Z,1.50
2022-10-16T15:27:01.041Z,1.10
2022-10-16T15:32:01.050Z,1.30
2022-10-16T15:37:00.918Z,1.30
2022-10-16T15:42:00.873Z,1.20
2022-10-16T15:47:00.782Z,1.30
2022-10-16T15:52:00.930Z,1.50
2022-10-16T15:57:00.747Z,1.40
2022-10-16T16:02:00.773Z,1.00
2022-10-16T16:07:00.633Z,1.20
2022-10-16T16:12:00.539Z,1.40
2022-10-16T16:17:00.396Z,1.30
2022-10-16T16:22:00.486Z,1.60
2022-10-16T16:27:00.421Z,36.70
2022-10-16T16:32:00.167Z,10.00
2022-10-16T16:37:00.093Z,1.80
2022-10-16T16:42:00.175Z,1.80
2022-10-16T16:46:59.978Z,2.10
2022-10-16T16:51:59.933Z,2.50
2022-10-16T16:56:59.899Z,2.10
2022-10-16T17:02:00.360Z,2.00
2022-10-16T17:06:59.788Z,2.70
2022-10-16T17:11:59.712Z,3.20
2022-10-16T17:16:59.662Z,3.70
2022-10-16T17:21:59.525Z,3.20
2022-10-16T17:26:59.541Z,3.30
2022-10-16T17:31:59.493Z,3.00
2022-10-16T17:36:59.292Z,2.90
2022-10-16T17:41:59.211Z,2.60
2022-10-16T17:46:59.164Z,2.90
2022-10-16T17:51:59.170Z,2.60
2022-10-16T17:56:59.067Z,2.90
2022-10-16T18:01:59.024Z,2.90
2022-10-16T18:06:58.946Z,3.20
2022-10-16T18:11:59.921Z,4.10
2022-10-16T18:16:58.774Z,4.80
2022-10-16T18:21:58.843Z,4.90
2022-10-16T18:26:58.658Z,6.20
2022-10-16T18:31:58.612Z,5.10
2022-10-16T18:36:58.653Z,5.20
2022-10-16T18:41:58.430Z,5.80
2022-10-16T18:46:58.358Z,5.80
2022-10-16T18:51:58.283Z,5.40
2022-10-16T18:56:58.241Z,5.20
2022-10-16T19:01:58.259Z,5.80
2022-10-16T19:06:58.079Z,5.30
2022-10-16T19:11:58.063Z,4.90
2022-10-16T19:16:58.098Z,5.10
2022-10-16T19:21:57.885Z,5.70
2022-10-16T19:26:57.825Z,7.30
2022-10-16T19:31:57.732Z,6.90
2022-10-16T19:36:57.665Z,8.00
2022-10-16T19:41:57.729Z,7.90
2022-10-16T19:46:57.806Z,10.40
2022-10-16T19:51:57.593Z,7.90
2022-10-16T19:56:57.424Z,8.30
2022-10-16T20:01:57.406Z,14.40
2022-10-16T20:06:57.294Z,8.90
2022-10-16T20:11:57.217Z,10.60
2022-10-16T20:16:57.210Z,7.60
2022-10-16T20:21:57.142Z,12.30
2022-10-16T20:26:57.079Z,15.20
2022-10-16T20:31:56.924Z,16.80
2022-10-16T20:36:56.934Z,12.90
2022-10-16T20:41:56.789Z,13.10
2022-10-16T20:46:56.773Z,14.70
2022-10-16T20:51:56.697Z,14.90
2022-10-16T20:56:56.690Z,14.40
2022-10-16T21:01:56.771Z,15.40
2022-10-16T21:06:56.488Z,15.60
2022-10-16T21:11:56.416Z,21.00
2022-10-16T21:16:56.328Z,17.30
2022-10-16T21:21:56.292Z,16.10
2022-10-16T21:26:56.240Z,16.50
2022-10-16T21:31:56.135Z,12.30
2022-10-16T21:36:56.086Z,20.40
2022-10-16T21:41:56.040Z,15.90
2022-10-16T21:46:55.932Z,20.70
2022-10-16T21:51:55.883Z,19.40
2022-10-16T21:56:55.863Z,17.40
2022-10-16T22:01:55.754Z,16.80
2022-10-16T22:06:55.695Z,17.60
2022-10-16T22:11:55.592Z,13.80
2022-10-16T22:16:55.517Z,11.60
2022-10-16T22:21:55.456Z,10.70
2022-10-16T22:26:55.410Z,11.50
2022-10-16T22:31:55.358Z,10.80
2022-10-16T22:36:55.555Z,10.30
2022-10-16T22:41:55.198Z,10.90
2022-10-16T22:46:55.157Z,11.10
2022-10-16T22:51:55.082Z,10.20
2022-10-16T22:56:55.010Z,11.00
2022-10-16T23:01:54.917Z,9.50
2022-10-16T23:06:54.838Z,9.30
2022-10-16T23:11:54.784Z,8.70
2022-10-16T23:16:54.699Z,9.60
2022-10-16T23:21:54.620Z,9.10
2022-10-16T23:26:54.650Z,9.20
2022-10-16T23:31:54.507Z,8.90
2022-10-16T23:36:54.432Z,8.40
2022-10-16T23:41:54.364Z,8.80
2022-10-16T23:46:54.282Z,7.80
2022-10-16T23:51:54.225Z,7.70
2022-10-16T23:56:54.180Z,7.70
